createdAt,value
2023-01-08T00:00:58.895Z,5.09
2023-01-08T00:03:25.364Z,4.85
2023-01-08T00:05:51.707Z,4.79
2023-01-08T00:08:17.979Z,5.14
2023-01-08T00:10:44.264Z,5.13
2023-01-08T00:13:10.551Z,4.98
2023-01-08T00:15:36.855Z,4.94
2023-01-08T00:18:05.394Z,4.63
2023-01-08T00:20:32.841Z,4.81
2023-01-08T00:22:59.084Z,4.75
2023-01-08T00:25:25.335Z,4.77
2023-01-08T00:27:51.603Z,5.04
2023-01-08T00:30:17.918Z,5.02
2023-01-08T00:32:44.206Z,4.85
2023-01-08T00:35:10.573Z,4.92
2023-01-08T00:37:36.833Z,4.69
2023-01-08T00:40:03.113Z,4.69
2023-01-08T00:42:29.412Z,4.47
2023-01-08T00:44:55.711Z,4.79
2023-01-08T00:47:21.959Z,4.55
2023-01-08T00:49:48.201Z,4.25
2023-01-08T00:52:14.454Z,4.26
2023-01-08T00:54:40.723Z,4.44
2023-01-08T00:57:06.969Z,4.20
2023-01-08T00:59:33.245Z,4.20
2023-01-08T01:01:59.576Z,4.09
2023-01-08T01:04:25.945Z,4.05
2023-01-08T01:06:52.249Z,4.23
2023-01-08T01:09:18.528Z,3.85
2023-01-08T01:11:44.802Z,3.74
2023-01-08T01:14:11.073Z,3.65
2023-01-08T01:16:37.389Z,3.97
2023-01-08T01:19:03.676Z,3.90
2023-01-08T01:21:29.939Z,3.98
2023-01-08T01:23:56.205Z,3.79
2023-01-08T01:26:22.441Z,3.84
2023-01-08T01:28:48.728Z,4.08
2023-01-08T01:31:15.072Z,4.02
2023-01-08T01:33:41.410Z,3.84
2023-01-08T01:36:07.672Z,3.91
2023-01-08T01:38:33.936Z,4.03
2023-01-08T01:41:00.204Z,3.88
2023-01-08T01:43:26.447Z,3.92
2023-01-08T01:45:52.776Z,3.83
2023-01-08T01:48:19.065Z,4.00
2023-01-08T01:50:45.336Z,3.82
2023-01-08T01:53:11.601Z,4.14
2023-01-08T01:55:37.865Z,4.18
2023-01-08T01:58:04.170Z,4.14
2023-01-08T02:00:30.432Z,3.94
2023-01-08T02:02:56.718Z,4.27
2023-01-08T02:05:22.965Z,4.02
2023-01-08T02:07:49.235Z,4.28
2023-01-08T02:10:15.506Z,4.40
2023-01-08T02:12:41.772Z,4.45
2023-01-08T02:15:08.042Z,4.43
2023-01-08T02:17:34.317Z,4.62
2023-01-08T02:20:00.581Z,4.45
2023-01-08T02:22:26.864Z,4.67
2023-01-08T02:24:53.146Z,4.63
2023-01-08T02:27:19.419Z,4.70
2023-01-08T02:29:45.673Z,4.53
2023-01-08T02:32:11.947Z,4.56
2023-01-08T02:34:38.246Z,4.72
2023-01-08T02:37:04.503Z,4.92
2023-01-08T02:39:30.766Z,4.55
2023-01-08T02:41:57.027Z,4.77
2023-01-08T02:44:23.315Z,4.83
2023-01-08T02:46:49.612Z,5.10
2023-01-08T02:49:15.889Z,5.23
2023-01-08T02:51:42.138Z,6.67
2023-01-08T02:54:08.382Z,6.99
2023-01-08T02:56:34.668Z,6.85
2023-01-08T02:59:00.942Z,6.87
2023-01-08T03:01:27.252Z,6.94
2023-01-08T03:03:53.625Z,7.23
2023-01-08T03:06:19.897Z,6.91
2023-01-08T03:08:46.144Z,5.64
2023-01-08T03:11:12.388Z,5.29
2023-01-08T03:13:38.653Z,5.22
2023-01-08T03:16:04.960Z,5.49
2023-01-08T03:18:31.230Z,5.63
2023-01-08T03:20:57.486Z,5.50
2023-01-08T03:23:23.737Z,5.20
2023-01-08T03:25:50.021Z,4.50
2023-01-08T03:28:16.280Z,3.92
2023-01-08T03:30:42.599Z,3.69
2023-01-08T03:33:08.873Z,3.63
2023-01-08T03:35:35.134Z,3.83
2023-01-08T03:38:01.401Z,3.44
2023-01-08T03:40:27.658Z,3.65
2023-01-08T03:42:53.907Z,3.60
2023-01-08T03:45:20.190Z,3.62
2023-01-08T03:47:46.474Z,3.36
2023-01-08T03:50:12.739Z,3.44
2023-01-08T03:52:39.028Z,3.78
2023-01-08T03:55:05.305Z,3.68
2023-01-08T03:57:31.556Z,3.64
2023-01-08T03:59:57.796Z,3.65
2023-01-08T04:02:24.198Z,3.50
2023-01-08T04:04:50.622Z,3.52
2023-01-08T04:07:16.882Z,3.70
2023-01-08T04:09:43.124Z,3.80
2023-01-08T04:12:09.360Z,3.93
2023-01-08T04:14:35.621Z,3.70
2023-01-08T04:17:01.923Z,3.67
2023-01-08T04:19:28.182Z,3.42
2023-01-08T04:21:54.456Z,3.26
2023-01-08T04:24:20.742Z,3.34
2023-01-08T04:26:47.022Z,3.33
2023-01-08T04:29:13.302Z,3.39
2023-01-08T04:31:39.540Z,3.48
2023-01-08T04:34:05.794Z,3.36
2023-01-08T04:36:32.034Z,3.14
2023-01-08T04:38:58.316Z,3.13
2023-01-08T04:41:24.576Z,3.21
2023-01-08T04:43:50.828Z,3.28
2023-01-08T04:46:17.171Z,3.16
2023-01-08T04:48:43.436Z,3.08
2023-01-08T04:51:09.681Z,2.96
2023-01-08T04:53:35.937Z,2.87
2023-01-08T04:56:02.191Z,2.77
2023-01-08T04:58:28.455Z,2.88
2023-01-08T05:00:54.709Z,2.51
2023-01-08T05:03:21.070Z,2.60
2023-01-08T05:05:49.839Z,2.55
2023-01-08T05:08:16.217Z,2.58
2023-01-08T05:10:42.466Z,2.31
2023-01-08T05:13:08.701Z,2.39
2023-01-08T05:15:34.969Z,2.54
2023-01-08T05:18:01.256Z,2.29
2023-01-08T05:20:27.517Z,2.39
2023-01-08T05:22:53.767Z,2.40
2023-01-08T05:25:20.039Z,2.60
2023-01-08T05:27:46.305Z,2.36
2023-01-08T05:30:12.564Z,2.59
2023-01-08T05:32:38.856Z,2.35
2023-01-08T05:35:05.180Z,2.37
2023-01-08T05:37:31.450Z,2.51
2023-01-08T05:39:57.716Z,2.48
2023-01-08T05:42:23.975Z,2.60
2023-01-08T05:44:50.229Z,2.70
2023-01-08T05:47:16.465Z,2.40
2023-01-08T05:49:42.726Z,2.47
2023-01-08T05:52:08.966Z,2.45
2023-01-08T05:54:35.202Z,2.40
2023-01-08T05:57:01.501Z,2.45
2023-01-08T05:59:27.762Z,2.51
2023-01-08T06:01:54.008Z,2.57
2023-01-08T06:04:20.324Z,2.29
2023-01-08T06:06:46.650Z,2.31
2023-01-08T06:09:12.910Z,2.49
2023-01-08T06:11:39.158Z,2.48
2023-01-08T06:14:05.421Z,2.47
2023-01-08T06:16:31.699Z,2.49
2023-01-08T06:18:57.952Z,2.43
2023-01-08T06:21:24.205Z,2.61
2023-01-08T06:23:50.444Z,2.41
2023-01-08T06:26:16.724Z,2.20
2023-01-08T06:28:43.091Z,2.41
2023-01-08T06:31:09.338Z,2.34
2023-01-08T06:33:35.610Z,2.22
2023-01-08T06:36:01.878Z,2.07
2023-01-08T06:38:28.150Z,2.07
2023-01-08T06:40:54.414Z,1.96
2023-01-08T06:43:22.597Z,2.10
2023-01-08T06:45:49.464Z,2.03
2023-01-08T06:48:15.721Z,2.12
2023-01-08T06:50:41.978Z,1.97
2023-01-08T06:53:08.245Z,1.95
2023-01-08T06:55:34.507Z,2.07
2023-01-08T06:58:00.761Z,2.06
2023-01-08T07:00:27.021Z,2.05
2023-01-08T07:02:53.447Z,2.21
2023-01-08T07:05:19.792Z,2.09
2023-01-08T07:07:46.048Z,1.93
2023-01-08T07:10:12.315Z,1.98
2023-01-08T07:12:38.558Z,2.02
2023-01-08T07:15:04.793Z,1.88
2023-01-08T07:17:31.057Z,2.15
2023-01-08T07:19:57.316Z,1.96
2023-01-08T07:22:23.549Z,2.13
2023-01-08T07:24:49.782Z,2.09
2023-01-08T07:27:16.021Z,2.12
2023-01-08T07:29:42.279Z,2.05
2023-01-08T07:32:08.540Z,2.21
2023-01-08T07:34:34.803Z,2.17
2023-01-08T07:37:01.039Z,2.21
2023-01-08T07:39:27.270Z,2.36
2023-01-08T07:41:53.534Z,2.27
2023-01-08T07:44:19.796Z,2.34
2023-01-08T07:46:46.117Z,2.23
2023-01-08T07:49:12.415Z,2.20
2023-01-08T07:51:38.673Z,2.12
2023-01-08T07:54:04.938Z,2.42
2023-01-08T07:56:31.176Z,2.34
2023-01-08T07:58:57.422Z,2.40
2023-01-08T08:01:23.773Z,2.44
2023-01-08T08:03:50.105Z,2.56
2023-01-08T08:06:16.361Z,2.59
2023-01-08T08:08:42.628Z,2.68
2023-01-08T08:11:08.903Z,2.89
2023-01-08T08:13:35.162Z,3.04
2023-01-08T08:16:01.477Z,2.76
2023-01-08T08:18:27.788Z,2.77
2023-01-08T08:20:54.039Z,2.68
2023-01-08T08:23:20.311Z,2.66
2023-01-08T08:25:46.585Z,2.51
2023-01-08T08:28:12.839Z,2.45
2023-01-08T08:30:41.992Z,2.53
2023-01-08T08:33:08.688Z,2.97
2023-01-08T08:35:34.942Z,2.47
2023-01-08T08:38:01.304Z,2.77
2023-01-08T08:40:27.553Z,2.97
2023-01-08T08:42:53.808Z,2.84
2023-01-08T08:45:20.055Z,2.70
2023-01-08T08:47:46.368Z,2.84
2023-01-08T08:50:12.616Z,2.79
2023-01-08T08:52:38.879Z,2.39
2023-01-08T08:55:05.140Z,2.38
2023-01-08T08:57:31.381Z,2.26
2023-01-08T08:59:59.343Z,2.36
2023-01-08T09:02:26.743Z,2.07
2023-01-08T09:04:53.130Z,2.29
2023-01-08T09:07:19.370Z,2.18
2023-01-08T09:09:45.650Z,2.19
2023-01-08T09:12:11.904Z,2.08
2023-01-08T09:14:38.158Z,2.18
2023-01-08T09:17:04.411Z,2.18
2023-01-08T09:19:30.681Z,2.18
2023-01-08T09:21:57.029Z,2.18
2023-01-08T09:24:23.286Z,2.06
2023-01-08T09:26:49.552Z,2.27
2023-01-08T09:29:15.821Z,1.98
2023-01-08T09:31:42.138Z,2.27
2023-01-08T09:34:08.423Z,2.04
2023-01-08T09:36:34.684Z,2.26
2023-01-08T09:39:00.955Z,2.02
2023-01-08T09:41:27.206Z,2.22
2023-01-08T09:43:53.471Z,2.50
2023-01-08T09:46:19.723Z,2.30
2023-01-08T09:48:45.979Z,2.16
2023-01-08T09:51:12.223Z,2.22
2023-01-08T09:53:38.461Z,2.20
2023-01-08T09:56:10.218Z,2.42
2023-01-08T09:58:36.809Z,2.19
2023-01-08T10:01:03.144Z,2.24
2023-01-08T10:03:29.418Z,1.89
2023-01-08T10:05:55.675Z,2.15
2023-01-08T10:08:21.945Z,2.09
2023-01-08T10:10:48.192Z,2.39
2023-01-08T10:13:14.449Z,2.22
2023-01-08T10:15:40.701Z,2.24
2023-01-08T10:18:06.961Z,2.21
2023-01-08T10:20:33.231Z,2.09
2023-01-08T10:22:59.473Z,2.03
2023-01-08T10:25:25.714Z,2.18
2023-01-08T10:27:51.981Z,2.17
2023-01-08T10:30:18.254Z,2.17
2023-01-08T10:32:44.520Z,2.13
2023-01-08T10:35:10.781Z,2.27
2023-01-08T10:37:37.041Z,2.21
2023-01-08T10:40:03.331Z,2.12
2023-01-08T10:42:29.594Z,1.89
2023-01-08T10:44:55.837Z,2.17
2023-01-08T10:47:22.074Z,2.04
2023-01-08T10:49:48.321Z,2.01
2023-01-08T10:52:14.557Z,2.06
2023-01-08T10:54:40.813Z,2.20
2023-01-08T10:57:07.051Z,2.06
2023-01-08T10:59:33.299Z,2.12
2023-01-08T11:01:59.641Z,2.18
2023-01-08T11:04:25.999Z,2.20
2023-01-08T11:06:52.267Z,2.28
2023-01-08T11:09:18.513Z,2.27
2023-01-08T11:11:44.763Z,2.49
2023-01-08T11:14:11.029Z,2.59
2023-01-08T11:16:37.309Z,2.73
2023-01-08T11:19:03.575Z,2.84
2023-01-08T11:21:29.835Z,2.78
2023-01-08T11:23:56.088Z,2.83
2023-01-08T11:26:22.346Z,2.81
2023-01-08T11:28:48.707Z,2.59
2023-01-08T11:31:15.004Z,2.70
2023-01-08T11:33:41.261Z,2.65
2023-01-08T11:36:07.528Z,2.62
2023-01-08T11:38:33.803Z,2.58
2023-01-08T11:41:00.078Z,2.67
2023-01-08T11:43:26.332Z,2.68
2023-01-08T11:45:52.627Z,2.72
2023-01-08T11:48:18.945Z,2.73
2023-01-08T11:50:45.213Z,2.66
2023-01-08T11:53:11.463Z,2.55
2023-01-08T11:55:37.727Z,2.64
2023-01-08T11:58:03.965Z,2.71
2023-01-08T12:00:30.225Z,2.71
2023-01-08T12:02:56.532Z,2.89
2023-01-08T12:05:22.808Z,2.61
2023-01-08T12:07:49.060Z,2.61
2023-01-08T12:10:15.335Z,2.68
2023-01-08T12:12:41.595Z,2.69
2023-01-08T12:15:07.850Z,2.95
2023-01-08T12:17:34.141Z,2.66
2023-01-08T12:20:00.407Z,2.84
2023-01-08T12:22:26.641Z,2.76
2023-01-08T12:24:52.901Z,2.80
2023-01-08T12:27:19.485Z,2.54
2023-01-08T12:29:45.745Z,2.62
2023-01-08T12:32:12.034Z,2.88
2023-01-08T12:34:38.300Z,2.96
2023-01-08T12:37:04.568Z,2.77
2023-01-08T12:39:30.835Z,2.59
2023-01-08T12:41:57.076Z,2.87
2023-01-08T12:44:23.330Z,2.79
2023-01-08T12:46:49.689Z,2.87
2023-01-08T12:49:15.995Z,2.83
2023-01-08T12:51:42.244Z,2.85
2023-01-08T12:54:08.487Z,2.87
2023-01-08T12:56:34.740Z,3.08
2023-01-08T12:59:00.990Z,3.11
2023-01-08T13:01:27.387Z,3.39
2023-01-08T13:03:53.728Z,3.32
2023-01-08T13:06:20.000Z,3.54
2023-01-08T13:08:46.252Z,3.45
2023-01-08T13:11:12.494Z,3.43
2023-01-08T13:13:38.755Z,3.19
2023-01-08T13:16:05.003Z,3.51
2023-01-08T13:18:31.352Z,3.21
2023-01-08T13:20:57.595Z,3.43
2023-01-08T13:23:23.844Z,3.38
2023-01-08T13:25:50.110Z,3.49
2023-01-08T13:28:16.369Z,3.62
2023-01-08T13:30:42.631Z,3.57
2023-01-08T13:33:08.887Z,3.44
2023-01-08T13:35:35.149Z,3.67
2023-01-08T13:38:01.393Z,3.50
2023-01-08T13:40:27.639Z,3.47
2023-01-08T13:42:53.874Z,3.64
2023-01-08T13:45:20.124Z,3.49
2023-01-08T13:47:46.417Z,3.63
2023-01-08T13:50:12.760Z,3.83
2023-01-08T13:52:39.005Z,3.95
2023-01-08T13:55:05.240Z,3.58
2023-01-08T13:57:31.486Z,3.59
2023-01-08T13:59:57.753Z,3.40
2023-01-08T14:02:24.104Z,3.28
2023-01-08T14:04:50.475Z,2.94
2023-01-08T14:07:16.736Z,2.80
2023-01-08T14:09:42.985Z,2.56
2023-01-08T14:12:09.243Z,2.47
2023-01-08T14:14:35.511Z,2.52
2023-01-08T14:17:01.768Z,2.49
2023-01-08T14:19:28.037Z,2.50
2023-01-08T14:21:54.310Z,2.67
2023-01-08T14:24:20.590Z,2.74
2023-01-08T14:26:46.858Z,2.66
2023-01-08T14:29:13.111Z,3.22
2023-01-08T14:31:39.383Z,3.41
2023-01-08T14:34:05.685Z,3.48
2023-01-08T14:36:31.959Z,3.32
2023-01-08T14:38:58.203Z,3.56
2023-01-08T14:41:24.460Z,3.82
2023-01-08T14:43:50.700Z,3.45
2023-01-08T14:46:16.949Z,3.62
2023-01-08T14:48:43.197Z,3.30
2023-01-08T14:51:09.548Z,3.38
2023-01-08T14:53:35.808Z,3.53
2023-01-08T14:56:02.093Z,3.45
2023-01-08T14:58:28.339Z,3.21
2023-01-08T15:00:54.632Z,3.19
2023-01-08T15:03:20.909Z,3.35
2023-01-08T15:05:47.170Z,3.31
2023-01-08T15:08:13.437Z,3.15
2023-01-08T15:10:39.697Z,3.04
2023-01-08T15:13:05.954Z,3.45
2023-01-08T15:15:32.224Z,3.34
2023-01-08T15:17:58.465Z,3.72
2023-01-08T15:20:24.718Z,3.35
2023-01-08T15:22:50.982Z,3.02
2023-01-08T15:25:17.239Z,2.99
2023-01-08T15:27:43.497Z,2.91
2023-01-08T15:30:09.732Z,3.26
2023-01-08T15:32:35.969Z,3.42
2023-01-08T15:35:02.218Z,3.64
2023-01-08T15:37:28.474Z,3.25
2023-01-08T15:39:54.740Z,3.17
2023-01-08T15:42:21.020Z,2.88
2023-01-08T15:44:47.279Z,2.62
2023-01-08T15:47:13.543Z,2.67
2023-01-08T15:49:39.800Z,2.57
2023-01-08T15:52:06.045Z,2.97
2023-01-08T15:54:32.303Z,2.97
2023-01-08T15:56:58.572Z,2.79
2023-01-08T15:59:24.840Z,2.56
2023-01-08T16:01:51.199Z,3.12
2023-01-08T16:04:17.505Z,4.83
2023-01-08T16:06:43.749Z,4.48
2023-01-08T16:09:09.990Z,3.88
2023-01-08T16:11:36.248Z,4.04
2023-01-08T16:14:02.527Z,2.53
2023-01-08T16:16:28.820Z,2.11
2023-01-08T16:18:55.105Z,1.96
2023-01-08T16:21:21.360Z,1.89
2023-01-08T16:23:47.638Z,2.15
2023-01-08T16:26:13.894Z,2.02
2023-01-08T16:28:40.149Z,2.13
2023-01-08T16:31:06.428Z,2.30
2023-01-08T16:33:32.698Z,2.41
2023-01-08T16:35:58.937Z,2.41
2023-01-08T16:38:25.181Z,2.25
2023-01-08T16:40:51.437Z,2.25
2023-01-08T16:43:17.694Z,2.14
2023-01-08T16:45:44.021Z,2.61
2023-01-08T16:48:10.293Z,2.63
2023-01-08T16:50:36.533Z,2.53
2023-01-08T16:53:02.781Z,2.71
2023-01-08T16:55:29.016Z,2.64
2023-01-08T16:57:55.601Z,3.20
2023-01-08T17:00:21.907Z,2.36
2023-01-08T17:02:48.316Z,3.32
2023-01-08T17:05:14.567Z,6.36
2023-01-08T17:07:40.830Z,14.05
2023-01-08T17:10:07.081Z,15.35
2023-01-08T17:12:33.342Z,12.26
2023-01-08T17:14:59.616Z,11.41
2023-01-08T17:17:25.863Z,9.88
2023-01-08T17:19:52.116Z,8.51
2023-01-08T17:22:18.366Z,7.30
2023-01-08T17:24:44.603Z,6.57
2023-01-08T17:27:10.856Z,5.70
2023-01-08T17:29:37.101Z,4.92
2023-01-08T17:32:03.352Z,4.36
2023-01-08T17:34:29.643Z,5.22
2023-01-08T17:36:55.890Z,6.30
2023-01-08T17:39:22.133Z,6.59
2023-01-08T17:41:48.378Z,5.78
2023-01-08T17:44:14.642Z,5.05
2023-01-08T17:46:40.895Z,3.47
2023-01-08T17:49:07.167Z,3.09
2023-01-08T17:51:33.485Z,3.29
2023-01-08T17:53:59.826Z,3.46
2023-01-08T17:56:26.081Z,3.34
2023-01-08T17:58:52.742Z,3.30
2023-01-08T18:01:19.118Z,3.33
2023-01-08T18:03:45.509Z,3.16
2023-01-08T18:06:11.770Z,2.95
2023-01-08T18:08:38.008Z,2.76
2023-01-08T18:11:04.241Z,2.97
2023-01-08T18:13:30.480Z,3.52
2023-01-08T18:15:56.733Z,3.49
2023-01-08T18:18:22.981Z,3.17
2023-01-08T18:20:49.234Z,4.00
2023-01-08T18:23:15.495Z,6.92
2023-01-08T18:25:41.781Z,7.77
2023-01-08T18:28:08.030Z,11.17
2023-01-08T18:30:34.284Z,16.45
2023-01-08T18:33:00.543Z,17.32
2023-01-08T18:35:26.808Z,16.12
2023-01-08T18:37:53.079Z,15.90
2023-01-08T18:40:19.348Z,15.67
2023-01-08T18:42:45.597Z,15.06
2023-01-08T18:45:11.855Z,14.67
2023-01-08T18:47:38.117Z,14.95
2023-01-08T18:50:04.377Z,16.05
2023-01-08T18:52:30.752Z,19.14
2023-01-08T18:54:57.009Z,19.20
2023-01-08T18:57:23.283Z,16.43
2023-01-08T18:59:49.562Z,12.55
2023-01-08T19:02:16.056Z,8.59
2023-01-08T19:04:42.326Z,8.97
2023-01-08T19:07:08.585Z,10.25
2023-01-08T19:09:34.848Z,10.05
2023-01-08T19:12:01.109Z,9.78
2023-01-08T19:14:27.348Z,10.12
2023-01-08T19:16:53.612Z,9.24
2023-01-08T19:19:19.890Z,9.30
2023-01-08T19:21:46.153Z,9.65
2023-01-08T19:24:12.410Z,9.94
2023-01-08T19:26:38.678Z,9.67
2023-01-08T19:29:05.105Z,9.33
2023-01-08T19:31:31.510Z,8.63
2023-01-08T19:33:57.798Z,8.70
2023-01-08T19:36:24.064Z,9.35
2023-01-08T19:38:50.312Z,9.26
2023-01-08T19:41:16.563Z,8.58
2023-01-08T19:43:42.954Z,8.58
2023-01-08T19:46:09.429Z,8.81
2023-01-08T19:48:35.732Z,9.09
2023-01-08T19:51:02.042Z,9.28
2023-01-08T19:53:28.348Z,9.41
2023-01-08T19:55:54.645Z,10.81
2023-01-08T19:58:20.899Z,11.45
2023-01-08T20:00:47.186Z,11.60
2023-01-08T20:03:13.486Z,11.01
2023-01-08T20:05:39.729Z,10.44
2023-01-08T20:08:05.976Z,10.65
2023-01-08T20:10:32.236Z,11.88
2023-01-08T20:12:58.476Z,11.04
2023-01-08T20:15:24.732Z,8.60
2023-01-08T20:17:51.011Z,6.18
2023-01-08T20:20:17.313Z,5.01
2023-01-08T20:22:43.555Z,4.51
2023-01-08T20:25:09.832Z,3.60
2023-01-08T20:27:36.075Z,2.61
2023-01-08T20:30:02.326Z,2.34
2023-01-08T20:32:28.584Z,2.44
2023-01-08T20:34:54.828Z,2.13
2023-01-08T20:37:22.113Z,1.96
2023-01-08T20:39:48.366Z,1.97
2023-01-08T20:42:17.646Z,1.93
2023-01-08T20:44:53.663Z,1.79
2023-01-08T20:47:19.926Z,1.84
2023-01-08T20:49:46.189Z,1.69
2023-01-08T20:52:12.427Z,1.72
2023-01-08T20:54:38.670Z,1.72
2023-01-08T20:57:04.925Z,1.77
2023-01-08T20:59:31.185Z,1.89
2023-01-08T21:01:57.574Z,1.88
2023-01-08T21:04:23.907Z,2.23
2023-01-08T21:06:50.205Z,2.11
2023-01-08T21:09:16.499Z,2.28
2023-01-08T21:11:42.764Z,2.66
2023-01-08T21:14:09.016Z,2.81
2023-01-08T21:16:35.317Z,3.15
2023-01-08T21:19:01.595Z,3.21
2023-01-08T21:21:27.933Z,3.43
2023-01-08T21:23:54.163Z,3.70
2023-01-08T21:26:20.417Z,3.72
2023-01-08T21:28:46.913Z,3.89
2023-01-08T21:31:13.217Z,3.63
2023-01-08T21:33:39.483Z,3.52
2023-01-08T21:36:05.761Z,3.31
2023-01-08T21:38:32.009Z,3.35
2023-01-08T21:40:58.257Z,3.43
2023-01-08T21:43:24.505Z,3.44
2023-01-08T21:45:50.801Z,3.53
2023-01-08T21:48:17.089Z,3.30
2023-01-08T21:50:43.338Z,3.56
2023-01-08T21:53:09.594Z,3.58
2023-01-08T21:55:35.849Z,3.38
2023-01-08T21:58:02.124Z,3.46
2023-01-08T22:00:28.361Z,3.01
2023-01-08T22:02:54.719Z,2.90
2023-01-08T22:05:20.995Z,3.05
2023-01-08T22:07:47.248Z,3.15
2023-01-08T22:10:13.517Z,3.76
2023-01-08T22:12:39.784Z,4.54
2023-01-08T22:15:06.064Z,4.84
2023-01-08T22:17:32.418Z,5.85
2023-01-08T22:19:58.669Z,6.19
2023-01-08T22:22:24.932Z,6.01
2023-01-08T22:24:51.190Z,6.45
2023-01-08T22:27:17.429Z,6.21
2023-01-08T22:29:43.705Z,5.89
2023-01-08T22:32:09.965Z,6.21
2023-01-08T22:34:36.205Z,6.50
2023-01-08T22:37:02.478Z,6.59
2023-01-08T22:39:28.727Z,6.65
2023-01-08T22:41:54.994Z,6.93
2023-01-08T22:44:21.249Z,6.87
2023-01-08T22:46:47.564Z,6.24
2023-01-08T22:49:13.816Z,5.75
2023-01-08T22:51:40.091Z,5.81
2023-01-08T22:54:06.374Z,5.57
2023-01-08T22:56:32.637Z,5.42
2023-01-08T22:58:58.893Z,5.58
2023-01-08T23:01:25.155Z,5.54
2023-01-08T23:03:51.491Z,5.09
2023-01-08T23:06:17.900Z,5.27
2023-01-08T23:08:44.154Z,5.17
2023-01-08T23:11:10.578Z,4.88
2023-01-08T23:13:36.821Z,4.76
2023-01-08T23:16:03.099Z,4.71
2023-01-08T23:18:29.414Z,4.76
2023-01-08T23:20:55.674Z,4.49
2023-01-08T23:23:21.929Z,4.64
2023-01-08T23:25:48.187Z,4.30
2023-01-08T23:28:14.472Z,4.62
2023-01-08T23:30:40.745Z,4.81
2023-01-08T23:33:07.011Z,4.36
2023-01-08T23:35:33.276Z,4.55
2023-01-08T23:37:59.547Z,4.29
2023-01-08T23:40:25.812Z,4.22
2023-01-08T23:42:52.083Z,4.47
2023-01-08T23:45:18.333Z,4.46
2023-01-08T23:47:44.590Z,4.42
2023-01-08T23:50:10.858Z,4.07
2023-01-08T23:52:37.112Z,4.01
2023-01-08T23:55:03.392Z,3.88
2023-01-08T23:57:29.636Z,4.11
2023-01-08T23:59:55.900Z,3.83
